Spill The Wine — WDH5509 — position and weather

sailwx.info

Track history (hours):
 
Tides and Currents Weather Stations Pressure Air Temp Water Temp Dewpoint Dewpoint Depression Visibility Wind Speed Wind Dir Waves Ship Positions

Spill The Wine

Owner: Miller, Michael M, Key Largo, FL. More information available from US FCC via Universal Licensing System and Coast Guard Vessel Documentation Center.

Last reported at 2018-May-26 21:48 UTC. Time now 2018-Jun-20 04:05 UTC.
Position N 36°49' W 076°17'.
Warning: this ship's position is 24 days out of date.

Length 7 m.

Type: Pleasure craft. MMSI: 367628630.

Date/timePositionNaut miles runAvg speedWind from/ knotsBaromVisibWave heightAir tempDewpointWater temp
2018-May-26 21:48N 36°49' W 076°17'2 6.9
2018-May-26 21:30N 36°47' W 076°18'  
2018-May-24 17:20N 34°50' W 076°41'2 5.6
2018-May-24 16:58N 34°48' W 076°41'3 5.5
2018-May-24 16:30N 34°46' W 076°41'2 4.9
2018-May-24 16:00N 34°43' W 076°40'1 0.0
2018-May-23 15:43N 34°43' W 076°40'0 0.0
2018-May-23 15:31N 34°43' W 076°40'2 4.3
2018-May-23 14:59N 34°41' W 076°40'7 0.3
2018-May-22 15:09N 34°38' W 076°33'1 6.9
2018-May-22 14:59N 34°38' W 076°34'  
Track history (hours):
 
Tides and Currents Weather Stations Pressure Air Temp Water Temp Dewpoint Dewpoint Depression Visibility Wind Speed Wind Dir Waves Ship Positions

Spill The Wine

Owner: Miller, Michael M, Key Largo, FL. More information available from US FCC via Universal Licensing System and Coast Guard Vessel Documentation Center.

Last reported at 2018-May-26 21:48 UTC. Time now 2018-Jun-20 04:05 UTC.
Position N 36°49' W 076°17'.
Warning: this ship's position is 24 days out of date.

Length 7 m.

Type: Pleasure craft. MMSI: 367628630.

Date/timePositionNaut miles runAvg speedWind from/ knotsBaromVisibWave heightAir tempDewpointWater temp
2018-May-26 21:48N 36°49' W 076°17'2 6.9
2018-May-26 21:30N 36°47' W 076°18'  
2018-May-24 17:20N 34°50' W 076°41'2 5.6
2018-May-24 16:58N 34°48' W 076°41'3 5.5
2018-May-24 16:30N 34°46' W 076°41'2 4.9
2018-May-24 16:00N 34°43' W 076°40'1 0.0
2018-May-23 15:43N 34°43' W 076°40'0 0.0
2018-May-23 15:31N 34°43' W 076°40'2 4.3
2018-May-23 14:59N 34°41' W 076°40'7 0.3
2018-May-22 15:09N 34°38' W 076°33'1 6.9
2018-May-22 14:59N 34°38' W 076°34'  

Dump ship's entire track history